Time;durP1;ratioP1;P1;durP2;ratioP2;P2;SDS_P1;SDS_P2;PMS_P1;PMS_P2;Temp;Humidity;BMP_temperature;BMP_pressure;BME280_temperature;BME280_humidity;BME280_pressure;Samples;Min_cycle;Max_cycle;Signal;HPM_P1;HPM_P2
2023/08/07 00:00:00;;;;;;;100.60;74.18;;;;;;;;;;7305588;19;141860;-76
2023/08/07 00:02:27;;;;;;;101.97;74.88;;;;;;;;;;7306145;19;140369;-74
2023/08/07 00:04:55;;;;;;;125.07;86.30;;;;;;;;;;7304718;19;140485;-76
2023/08/07 00:07:24;;;;;;;129.00;88.32;;;;;;;;;;7305182;19;140982;-75
2023/08/07 00:09:51;;;;;;;126.95;87.35;;;;;;;;;;7303926;19;141874;-74
2023/08/07 00:12:18;;;;;;;128.50;87.95;;;;;;;;;;7305273;19;140382;-76
2023/08/07 00:14:47;;;;;;;134.10;90.60;;;;;;;;;;7305423;19;140649;-76
2023/08/07 00:17:14;;;;;;;142.70;95.03;;;;;;;;;;7305048;19;142101;-76
2023/08/07 00:19:41;;;;;;;152.85;99.13;;;;;;;;;;7304908;19;142814;-75
2023/08/07 00:22:08;;;;;;;150.85;98.22;;;;;;;;;;7305513;19;140394;-75
2023/08/07 00:24:35;;;;;;;155.73;100.88;;;;;;;;;;7305103;19;140646;-75
2023/08/07 00:27:02;;;;;;;165.23;105.47;;;;;;;;;;7304263;19;141831;-76
2023/08/07 00:29:30;;;;;;;185.70;114.38;;;;;;;;;;7303463;19;141953;-76
2023/08/07 00:31:56;;;;;;;185.18;114.47;;;;;;;;;;7305416;19;140490;-76
2023/08/07 00:34:23;;;;;;;183.50;112.88;;;;;;;;;;7304995;19;140552;-76
2023/08/07 00:36:50;;;;;;;205.80;122.78;;;;;;;;;;7304575;19;142265;-76
2023/08/07 00:39:17;;;;;;;208.00;124.30;;;;;;;;;;7305096;19;141529;-76
2023/08/07 00:41:44;;;;;;;192.00;117.30;;;;;;;;;;7303672;19;140528;-76
2023/08/07 00:44:12;;;;;;;182.55;113.00;;;;;;;;;;7304893;19;140575;-76
2023/08/07 00:46:39;;;;;;;152.02;99.68;;;;;;;;;;7304171;19;141001;-76
2023/08/07 00:49:08;;;;;;;107.20;77.43;;;;;;;;;;7303657;19;140734;-75
2023/08/07 00:51:35;;;;;;;89.05;68.72;;;;;;;;;;7304697;19;140528;-74
2023/08/07 00:54:03;;;;;;;89.03;67.63;;;;;;;;;;7302535;19;140520;-76
2023/08/07 00:56:31;;;;;;;89.50;68.97;;;;;;;;;;7302200;19;141846;-75
2023/08/07 00:58:59;;;;;;;89.03;68.05;;;;;;;;;;7303790;19;142176;-75
2023/08/07 01:01:26;;;;;;;75.57;61.33;;;;;;;;;;7304412;19;140709;-75
2023/08/07 01:03:53;;;;;;;98.10;72.85;;;;;;;;;;7303912;19;140425;-76
2023/08/07 01:06:20;;;;;;;76.10;61.38;;;;;;;;;;7303941;19;141441;-74
2023/08/07 01:08:48;;;;;;;71.68;58.50;;;;;;;;;;7303357;19;142017;-75
2023/08/07 01:11:32;;;;;;;71.13;58.65;;;;;;;;;;7298686;19;140774;-75
2023/08/07 01:14:34;;;;;;;76.72;61.70;;;;;;;;;;7303846;19;140815;-75
2023/08/07 01:17:05;;;;;;;83.78;65.72;;;;;;;;;;7299120;19;140675;-75
2023/08/07 01:19:33;;;;;;;78.40;62.53;;;;;;;;;;7302727;19;142564;-75
2023/08/07 01:22:04;;;;;;;63.03;54.45;;;;;;;;;;7303590;19;140603;-76
2023/08/07 01:24:32;;;;;;;60.50;52.50;;;;;;;;;;7304000;19;140614;-76
2023/08/07 01:27:02;;;;;;;66.68;56.55;;;;;;;;;;7302669;19;141062;-75
2023/08/07 01:29:34;;;;;;;56.38;50.38;;;;;;;;;;7303032;19;141979;-75
2023/08/07 01:32:03;;;;;;;58.03;51.67;;;;;;;;;;7301468;19;140489;-76
2023/08/07 01:34:31;;;;;;;72.70;59.20;;;;;;;;;;7303328;19;140527;-75
2023/08/07 01:36:59;;;;;;;65.53;55.83;;;;;;;;;;7302563;19;141952;-76
2023/08/07 01:39:26;;;;;;;64.40;55.72;;;;;;;;;;7302903;19;140704;-75
2023/08/07 01:41:54;;;;;;;55.53;49.63;;;;;;;;;;7301992;19;140903;-76
2023/08/07 01:44:21;;;;;;;48.45;43.70;;;;;;;;;;7302517;19;140830;-75
2023/08/07 01:46:48;;;;;;;48.95;44.10;;;;;;;;;;7302041;19;140736;-75
2023/08/07 01:49:16;;;;;;;51.88;46.38;;;;;;;;;;7302073;19;141845;-75
2023/08/07 01:51:43;;;;;;;54.72;49.03;;;;;;;;;;7300934;19;140776;-75
2023/08/07 01:54:10;;;;;;;47.42;42.67;;;;;;;;;;7300987;19;140665;-75
2023/08/07 01:56:37;;;;;;;56.85;50.72;;;;;;;;;;7302094;19;140510;-76
2023/08/07 01:59:04;;;;;;;52.95;47.45;;;;;;;;;;7301840;19;141949;-75
2023/08/07 02:01:31;;;;;;;61.65;53.72;;;;;;;;;;7301452;19;140621;-75
2023/08/07 02:03:58;;;;;;;60.13;52.75;;;;;;;;;;7302435;19;140841;-75
2023/08/07 02:06:25;;;;;;;54.42;48.65;;;;;;;;;;7301507;19;142567;-75
2023/08/07 02:08:52;;;;;;;57.80;51.47;;;;;;;;;;7301881;19;142857;-76
2023/08/07 02:11:19;;;;;;;66.10;54.80;;;;;;;;;;7301495;19;140475;-76
2023/08/07 02:13:46;;;;;;;58.20;51.85;;;;;;;;;;7301523;19;140541;-76
2023/08/07 02:16:13;;;;;;;56.88;50.58;;;;;;;;;;7302010;19;141493;-74
2023/08/07 02:18:40;;;;;;;59.38;52.92;;;;;;;;;;7300941;19;141965;-76
2023/08/07 02:21:07;;;;;;;52.72;47.28;;;;;;;;;;7301130;19;140908;-76
2023/08/07 02:23:34;;;;;;;54.30;48.65;;;;;;;;;;7299106;19;140633;-76
2023/08/07 02:26:01;;;;;;;53.78;47.97;;;;;;;;;;7301112;19;141567;-75
2023/08/07 02:28:28;;;;;;;48.67;43.83;;;;;;;;;;7300318;19;141444;-75
2023/08/07 02:30:55;;;;;;;51.80;46.53;;;;;;;;;;7301288;19;140750;-75
2023/08/07 02:33:22;;;;;;;48.33;43.60;;;;;;;;;;7301176;19;141129;-75
2023/08/07 02:35:51;;;;;;;50.45;45.38;;;;;;;;;;7301186;19;140528;-75
2023/08/07 02:38:17;;;;;;;40.78;37.08;;;;;;;;;;7299747;19;142552;-76
2023/08/07 02:40:45;;;;;;;47.70;43.03;;;;;;;;;;7300552;19;140486;-76
2023/08/07 02:43:12;;;;;;;44.45;40.20;;;;;;;;;;7299926;19;140921;-75
2023/08/07 02:45:39;;;;;;;43.72;39.72;;;;;;;;;;7301304;19;140764;-76
2023/08/07 02:48:06;;;;;;;43.97;39.75;;;;;;;;;;7300936;19;142126;-76
2023/08/07 02:50:33;;;;;;;42.78;38.80;;;;;;;;;;7300955;19;140837;-75
2023/08/07 02:53:00;;;;;;;38.70;35.33;;;;;;;;;;7300921;19;140640;-76
2023/08/07 02:55:27;;;;;;;46.20;41.70;;;;;;;;;;7299993;19;141096;-76
2023/08/07 02:57:54;;;;;;;43.15;39.13;;;;;;;;;;7299387;19;142094;-76
2023/08/07 03:00:21;;;;;;;46.90;42.28;;;;;;;;;;7300891;19;140598;-76
2023/08/07 03:02:53;;;;;;;48.17;43.22;;;;;;;;;;7300712;19;140541;-76
2023/08/07 03:05:20;;;;;;;46.00;41.50;;;;;;;;;;7300489;19;141014;-76
2023/08/07 03:07:47;;;;;;;41.88;37.97;;;;;;;;;;7300137;19;142181;-76
2023/08/07 03:10:14;;;;;;;45.15;40.80;;;;;;;;;;7300459;19;140654;-76
2023/08/07 03:12:41;;;;;;;40.60;36.95;;;;;;;;;;7299320;19;140616;-76
2023/08/07 03:15:08;;;;;;;48.28;43.33;;;;;;;;;;7299354;19;141304;-75
2023/08/07 03:17:35;;;;;;;38.17;34.67;;;;;;;;;;7300080;19;142533;-75
2023/08/07 03:20:03;;;;;;;45.65;41.22;;;;;;;;;;7300000;19;140428;-75
2023/08/07 03:22:30;;;;;;;45.55;41.17;;;;;;;;;;7299136;19;140623;-75
2023/08/07 03:24:58;;;;;;;43.13;39.03;;;;;;;;;;7298716;19;141327;-75
2023/08/07 03:27:25;;;;;;;35.13;31.90;;;;;;;;;;7298925;19;142034;-74
2023/08/07 03:29:52;;;;;;;25.67;23.58;;;;;;;;;;7299673;19;140592;-75
2023/08/07 03:32:19;;;;;;;23.45;21.60;;;;;;;;;;7299687;19;140609;-75
2023/08/07 03:34:46;;;;;;;22.23;20.52;;;;;;;;;;7302679;19;140990;-75
2023/08/07 03:37:13;;;;;;;27.38;25.13;;;;;;;;;;7305891;19;141206;-75
2023/08/07 03:39:40;;;;;;;14.77;13.60;;;;;;;;;;7307018;19;140562;-75
2023/08/07 03:42:07;;;;;;;26.50;24.42;;;;;;;;;;7305687;19;140435;-76
2023/08/07 03:44:34;;;;;;;16.52;15.30;;;;;;;;;;7306012;19;141121;-75
2023/08/07 03:47:01;;;;;;;17.02;15.48;;;;;;;;;;7305937;19;142168;-75
2023/08/07 03:49:28;;;;;;;24.23;22.25;;;;;;;;;;7306836;19;140802;-76
2023/08/07 03:51:56;;;;;;;28.05;25.85;;;;;;;;;;7306225;19;140716;-75
2023/08/07 03:54:25;;;;;;;25.15;23.10;;;;;;;;;;7305486;19;141150;-74
2023/08/07 03:56:52;;;;;;;19.67;17.70;;;;;;;;;;7305015;19;142073;-75
2023/08/07 03:59:20;;;;;;;18.13;16.77;;;;;;;;;;7306608;19;140406;-75
2023/08/07 04:01:47;;;;;;;31.95;29.20;;;;;;;;;;7306299;19;140352;-74
2023/08/07 04:04:14;;;;;;;26.90;24.67;;;;;;;;;;7304240;19;141423;-75
2023/08/07 04:06:41;;;;;;;25.25;23.17;;;;;;;;;;7306364;19;142107;-74
2023/08/07 04:09:10;;;;;;;21.23;19.55;;;;;;;;;;7306063;19;140517;-75
2023/08/07 04:11:37;;;;;;;23.67;21.67;;;;;;;;;;7304674;19;140636;-75
2023/08/07 04:14:07;;;;;;;27.85;25.52;;;;;;;;;;7305023;19;141058;-76
2023/08/07 04:16:34;;;;;;;27.17;24.97;;;;;;;;;;7306178;19;140720;-76
2023/08/07 04:19:01;;;;;;;24.17;22.30;;;;;;;;;;7305952;19;140753;-76
2023/08/07 04:21:30;;;;;;;18.90;17.52;;;;;;;;;;7305816;19;140681;-76
2023/08/07 04:23:57;;;;;;;29.70;27.10;;;;;;;;;;7305273;19;140535;-75
2023/08/07 04:26:24;;;;;;;23.58;21.65;;;;;;;;;;7305185;19;142734;-76
2023/08/07 04:28:51;;;;;;;18.40;16.90;;;;;;;;;;7304851;19;140647;-78
2023/08/07 04:31:18;;;;;;;24.83;22.75;;;;;;;;;;7306071;19;140335;-76
2023/08/07 04:33:46;;;;;;;20.70;19.08;;;;;;;;;;7305079;19;140665;-76
2023/08/07 04:36:13;;;;;;;22.80;21.00;;;;;;;;;;7305907;19;140951;-76
2023/08/07 04:38:40;;;;;;;13.32;12.38;;;;;;;;;;7305814;19;140590;-76
2023/08/07 04:41:08;;;;;;;17.02;15.70;;;;;;;;;;7305559;19;140704;-76
2023/08/07 04:43:35;;;;;;;26.23;24.08;;;;;;;;;;7305297;19;140810;-76
2023/08/07 04:46:02;;;;;;;23.83;21.90;;;;;;;;;;7303013;19;141858;-76
2023/08/07 04:48:29;;;;;;;13.63;12.63;;;;;;;;;;7304778;19;140513;-76
2023/08/07 04:50:57;;;;;;;15.05;13.90;;;;;;;;;;7307013;19;140770;-77
2023/08/07 04:53:24;;;;;;;18.85;17.30;;;;;;;;;;7302999;19;141108;-76
2023/08/07 04:55:51;;;;;;;14.25;12.77;;;;;;;;;;7304797;19;142768;-77
2023/08/07 04:58:18;;;;;;;14.75;13.43;;;;;;;;;;7304745;19;140694;-76
2023/08/07 05:00:46;;;;;;;20.02;18.58;;;;;;;;;;7308124;19;140833;-76
2023/08/07 05:03:15;;;;;;;19.27;17.80;;;;;;;;;;7317617;19;140817;-79
2023/08/07 05:05:45;;;;;;;27.65;25.35;;;;;;;;;;7318570;19;141820;-76
2023/08/07 05:08:12;;;;;;;26.17;24.02;;;;;;;;;;7308681;19;140606;-73
2023/08/07 05:10:39;;;;;;;21.73;20.05;;;;;;;;;;7303990;19;140534;-73
2023/08/07 05:13:06;;;;;;;24.23;22.05;;;;;;;;;;7302708;19;141353;-73
2023/08/07 05:15:34;;;;;;;29.45;27.00;;;;;;;;;;7301971;19;143043;-73
2023/08/07 05:18:01;;;;;;;22.27;20.50;;;;;;;;;;7303797;19;140683;-73
2023/08/07 05:20:28;;;;;;;23.80;21.88;;;;;;;;;;7303741;19;140445;-74
2023/08/07 05:22:56;;;;;;;24.90;22.85;;;;;;;;;;7302591;19;141007;-74
2023/08/07 05:25:22;;;;;;;27.23;24.98;;;;;;;;;;7303153;19;141937;-73
2023/08/07 05:27:49;;;;;;;25.73;23.63;;;;;;;;;;7301706;19;140410;-77
2023/08/07 05:30:17;;;;;;;32.45;29.77;;;;;;;;;;7303203;19;140569;-76
2023/08/07 05:32:44;;;;;;;32.33;29.65;;;;;;;;;;7302906;19;141016;-76
2023/08/07 05:35:11;;;;;;;22.50;20.73;;;;;;;;;;7303180;19;141393;-76
2023/08/07 05:37:38;;;;;;;22.23;20.60;;;;;;;;;;7303235;19;140514;-76
2023/08/07 05:40:06;;;;;;;32.67;30.00;;;;;;;;;;7302697;19;140403;-76
2023/08/07 05:42:34;;;;;;;25.85;23.08;;;;;;;;;;7301800;19;140450;-75
2023/08/07 05:45:03;;;;;;;15.52;14.38;;;;;;;;;;7303149;19;142584;-76
2023/08/07 05:47:32;;;;;;;12.65;11.68;;;;;;;;;;7302133;19;140835;-76
2023/08/07 05:49:59;;;;;;;21.80;20.17;;;;;;;;;;7301517;19;140465;-75
2023/08/07 05:52:26;;;;;;;13.73;12.65;;;;;;;;;;7303459;19;141032;-77
2023/08/07 05:54:53;;;;;;;8.82;5.45;;;;;;;;;;7303915;19;142636;-75
2023/08/07 05:57:21;;;;;;;4.78;3.35;;;;;;;;;;7302904;19;140346;-76
2023/08/07 05:59:48;;;;;;;2.00;1.80;;;;;;;;;;7303010;19;140450;-76
2023/08/07 06:02:15;;;;;;;1.98;1.65;;;;;;;;;;7302661;19;141911;-76
2023/08/07 06:04:42;;;;;;;2.15;1.42;;;;;;;;;;7300574;19;142525;-76
2023/08/07 06:07:09;;;;;;;2.60;1.42;;;;;;;;;;7302262;19;140638;-76
2023/08/07 06:09:39;;;;;;;2.35;1.42;;;;;;;;;;7302096;19;140473;-76
2023/08/07 06:12:08;;;;;;;4.95;2.47;;;;;;;;;;7301844;19;141616;-76
2023/08/07 06:14:37;;;;;;;3.55;2.15;;;;;;;;;;7300406;19;142138;-76
2023/08/07 06:17:04;;;;;;;4.05;2.45;;;;;;;;;;7303116;19;140442;-76
2023/08/07 06:19:31;;;;;;;10.13;8.23;;;;;;;;;;7303038;19;140544;-76
2023/08/07 06:21:59;;;;;;;27.27;24.92;;;;;;;;;;7302165;19;141415;-76
2023/08/07 06:24:26;;;;;;;19.80;18.17;;;;;;;;;;7301039;19;141896;-76
2023/08/07 06:26:54;;;;;;;17.17;15.65;;;;;;;;;;7301477;19;140411;-76
2023/08/07 06:29:21;;;;;;;98.30;74.93;;;;;;;;;;7300979;19;140951;-76
2023/08/07 06:31:48;;;;;;;116.40;84.18;;;;;;;;;;7301475;19;141338;-76
2023/08/07 06:34:15;;;;;;;106.35;78.88;;;;;;;;;;7301961;19;140761;-76
2023/08/07 06:36:52;;;;;;;70.50;58.28;;;;;;;;;;7299637;19;140646;-76
2023/08/07 06:39:19;;;;;;;30.95;28.20;;;;;;;;;;7300518;19;140846;-76
2023/08/07 06:41:46;;;;;;;46.92;42.40;;;;;;;;;;7301312;19;142116;-76
2023/08/07 06:44:13;;;;;;;38.30;34.80;;;;;;;;;;7300614;19;141931;-76
2023/08/07 06:46:40;;;;;;;19.83;18.08;;;;;;;;;;7301296;19;140639;-75
2023/08/07 06:49:08;;;;;;;72.40;60.83;;;;;;;;;;7301254;19;140651;-76
2023/08/07 06:51:35;;;;;;;62.00;54.60;;;;;;;;;;7300568;19;140841;-75
2023/08/07 06:54:01;;;;;;;66.30;58.25;;;;;;;;;;7300485;19;141844;-75
2023/08/07 06:56:28;;;;;;;93.18;72.00;;;;;;;;;;7300477;19;140591;-75
2023/08/07 06:58:55;;;;;;;138.73;93.85;;;;;;;;;;7299600;19;140442;-76
2023/08/07 07:01:23;;;;;;;114.38;82.82;;;;;;;;;;7300158;19;141175;-75
2023/08/07 07:03:52;;;;;;;95.93;73.50;;;;;;;;;;7300526;19;141093;-75
2023/08/07 07:06:20;;;;;;;;;;;;;;;;;;7301756;19;140575;-75
2023/08/07 07:08:48;;;;;;;68.18;58.90;;;;;;;;;;7303237;19;140950;-75
2023/08/07 07:11:15;;;;;;;99.85;75.38;;;;;;;;;;7307560;19;140969;-75
2023/08/07 07:13:42;;;;;;;78.72;63.30;;;;;;;;;;7305299;19;142641;-75
2023/08/07 07:16:11;;;;;;;58.42;52.17;;;;;;;;;;7308154;19;140372;-76
2023/08/07 07:18:39;;;;;;;63.08;55.78;;;;;;;;;;7307672;19;140826;-76
2023/08/07 07:21:06;;;;;;;64.72;56.10;;;;;;;;;;7306256;19;141588;-76
2023/08/07 07:23:33;;;;;;;50.13;44.97;;;;;;;;;;7306461;19;141609;-76
2023/08/07 07:26:00;;;;;;;54.65;49.08;;;;;;;;;;7307619;19;140419;-76
2023/08/07 07:28:27;;;;;;;51.40;46.28;;;;;;;;;;7304950;19;140692;-75
2023/08/07 07:30:54;;;;;;;66.47;57.53;;;;;;;;;;7307141;19;141985;-75
2023/08/07 07:33:23;;;;;;;53.20;47.67;;;;;;;;;;7307675;19;142027;-76
2023/08/07 07:35:50;;;;;;;59.70;52.75;;;;;;;;;;7306803;19;140588;-74
2023/08/07 07:38:18;;;;;;;69.10;57.97;;;;;;;;;;7306260;19;140532;-74
2023/08/07 07:40:45;;;;;;;68.90;58.50;;;;;;;;;;7306218;19;141131;-75
2023/08/07 07:43:12;;;;;;;83.07;64.75;;;;;;;;;;7305753;19;141310;-77
2023/08/07 07:45:39;;;;;;;77.55;62.08;;;;;;;;;;7307353;19;140854;-75
2023/08/07 07:48:07;;;;;;;67.75;57.67;;;;;;;;;;7306598;19;140536;-77
2023/08/07 07:50:34;;;;;;;71.97;60.38;;;;;;;;;;7305468;19;141672;-76
2023/08/07 07:53:04;;;;;;;70.25;53.80;;;;;;;;;;7305152;19;142123;-75
2023/08/07 07:55:34;;;;;;;43.13;39.20;;;;;;;;;;7306167;19;141001;-74
2023/08/07 07:58:01;;;;;;;54.05;48.40;;;;;;;;;;7305343;19;141158;-74
2023/08/07 08:00:28;;;;;;;38.60;35.17;;;;;;;;;;7305589;19;141169;-75
2023/08/07 08:02:55;;;;;;;50.35;45.22;;;;;;;;;;7304738;19;141845;-75
2023/08/07 08:05:22;;;;;;;48.13;43.47;;;;;;;;;;7306674;19;140508;-76
2023/08/07 08:07:49;;;;;;;48.25;43.60;;;;;;;;;;7306772;19;140536;-75
2023/08/07 08:10:16;;;;;;;41.45;37.65;;;;;;;;;;7303864;19;140984;-75
2023/08/07 08:12:43;;;;;;;47.25;42.45;;;;;;;;;;7305590;19;140710;-75
2023/08/07 08:15:10;;;;;;;31.75;29.15;;;;;;;;;;7304579;19;140633;-76
2023/08/07 08:17:37;;;;;;;30.40;27.95;;;;;;;;;;7306251;19;140697;-76
2023/08/07 08:20:05;;;;;;;33.75;30.83;;;;;;;;;;7304224;19;141420;-76
2023/08/07 08:22:33;;;;;;;30.45;27.60;;;;;;;;;;7306065;19;141612;-75
2023/08/07 08:25:01;;;;;;;28.13;25.90;;;;;;;;;;7305851;19;140627;-75
2023/08/07 08:27:28;;;;;;;37.55;34.30;;;;;;;;;;7305703;19;141170;-75
2023/08/07 08:29:54;;;;;;;21.98;20.20;;;;;;;;;;7304577;19;141420;-75
2023/08/07 08:32:22;;;;;;;22.60;20.77;;;;;;;;;;7303085;19;142775;-76
2023/08/07 08:34:49;;;;;;;21.55;19.92;;;;;;;;;;7305213;19;140772;-74
2023/08/07 08:37:17;;;;;;;35.30;32.05;;;;;;;;;;7305137;19;140460;-75
2023/08/07 08:39:47;;;;;;;42.50;38.42;;;;;;;;;;7304336;19;140663;-75
2023/08/07 08:42:14;;;;;;;4.28;2.30;;;;;;;;;;7304895;19;142025;-73
2023/08/07 08:44:45;;;;;;;8.40;2.75;;;;;;;;;;7300193;19;140585;-74
2023/08/07 08:47:12;;;;;;;10.30;2.80;;;;;;;;;;7300443;19;140956;-73
2023/08/07 08:49:47;;;;;;;12.18;2.78;;;;;;;;;;7300381;19;140996;-73
2023/08/07 08:52:15;;;;;;;8.35;2.42;;;;;;;;;;7299819;19;142148;-75
2023/08/07 08:54:43;;;;;;;7.55;2.03;;;;;;;;;;7300070;19;140593;-78
2023/08/07 08:57:11;;;;;;;9.45;2.30;;;;;;;;;;7301283;19;140629;-81
2023/08/07 08:59:39;;;;;;;4.70;1.58;;;;;;;;;;7301525;19;141092;-78
2023/08/07 09:02:08;;;;;;;6.35;1.80;;;;;;;;;;7304206;19;140813;-76
2023/08/07 09:04:35;;;;;;;6.95;1.65;;;;;;;;;;7305188;19;140447;-80
2023/08/07 09:07:02;;;;;;;4.97;1.92;;;;;;;;;;7304526;19;140577;-79
2023/08/07 09:09:30;;;;;;;6.05;1.73;;;;;;;;;;7304217;19;141864;-79
2023/08/07 09:11:58;;;;;;;6.43;1.92;;;;;;;;;;7303052;19;142554;-78
2023/08/07 09:14:26;;;;;;;8.40;2.13;;;;;;;;;;7303849;19;140869;-76
2023/08/07 09:16:54;;;;;;;9.32;2.78;;;;;;;;;;7305464;19;141127;-82
2023/08/07 09:19:25;;;;;;;;;;;;;;;;;;7307342;19;140465;-77
2023/08/07 09:21:55;;;;;;;11.00;2.78;;;;;;;;;;7304880;19;151338;-78
2023/08/07 09:24:24;;;;;;;13.07;3.30;;;;;;;;;;7307522;19;140633;-77
2023/08/07 09:26:51;;;;;;;14.50;2.95;;;;;;;;;;7327308;19;140782;-82
2023/08/07 09:29:20;;;;;;;20.88;4.05;;;;;;;;;;7328742;19;141028;-78
2023/08/07 09:31:47;;;;;;;20.02;3.88;;;;;;;;;;7323995;19;140237;-78
2023/08/07 09:34:19;;;;;;;20.27;4.72;;;;;;;;;;7326709;19;140544;-78
2023/08/07 09:36:46;;;;;;;25.73;5.85;;;;;;;;;;7327247;19;140204;-81
2023/08/07 09:39:14;;;;;;;24.92;4.85;;;;;;;;;;7322556;19;140650;-78
2023/08/07 09:41:41;;;;;;;22.92;5.35;;;;;;;;;;7306594;19;141845;-78
2023/08/07 09:44:09;;;;;;;31.52;6.18;;;;;;;;;;7303284;19;140575;-78
2023/08/07 09:46:44;;;;;;;37.83;6.95;;;;;;;;;;7306122;19;140611;-79
2023/08/07 09:49:11;;;;;;;38.08;7.88;;;;;;;;;;7301069;19;141334;-79
2023/08/07 09:51:43;;;;;;;30.95;6.55;;;;;;;;;;7300818;19;142680;-79
2023/08/07 09:54:10;;;;;;;27.25;6.03;;;;;;;;;;7303392;19;140379;-80
2023/08/07 09:56:41;;;;;;;32.58;6.93;;;;;;;;;;7301671;19;140538;-78
2023/08/07 09:59:08;;;;;;;36.60;7.13;;;;;;;;;;7301005;19;141225;-76
2023/08/07 10:01:40;;;;;;;35.60;7.25;;;;;;;;;;7298707;19;142142;-76
2023/08/07 10:04:08;;;;;;;31.60;6.97;;;;;;;;;;7303568;19;140960;-75
2023/08/07 10:06:35;;;;;;;26.23;5.68;;;;;;;;;;7301682;19;140616;-75
2023/08/07 10:09:03;;;;;;;25.85;5.85;;;;;;;;;;7301408;19;140765;-75
2023/08/07 10:11:31;;;;;;;24.35;5.50;;;;;;;;;;7303116;19;140984;-74
2023/08/07 10:13:58;;;;;;;21.98;5.45;;;;;;;;;;7303186;19;140556;-74
2023/08/07 10:16:29;;;;;;;29.13;5.32;;;;;;;;;;7303005;19;140417;-74
2023/08/07 10:18:56;;;;;;;21.70;5.07;;;;;;;;;;7301529;19;140488;-73
2023/08/07 10:21:24;;;;;;;30.88;5.20;;;;;;;;;;7300845;19;142016;-73
2023/08/07 10:23:53;;;;;;;23.00;5.30;;;;;;;;;;7301423;19;140766;-75
2023/08/07 10:26:24;;;;;;;25.83;5.35;;;;;;;;;;7301292;19;140559;-75
2023/08/07 10:28:53;;;;;;;24.63;5.43;;;;;;;;;;7300922;19;141039;-75
2023/08/07 10:31:22;;;;;;;21.23;5.05;;;;;;;;;;7300053;19;142652;-75
2023/08/07 10:33:49;;;;;;;24.88;4.65;;;;;;;;;;7301050;19;140884;-73
2023/08/07 10:36:17;;;;;;;21.02;4.55;;;;;;;;;;7300766;19;140829;-74
2023/08/07 10:38:44;;;;;;;19.63;4.78;;;;;;;;;;7300178;19;141036;-74
2023/08/07 10:41:14;;;;;;;19.48;4.57;;;;;;;;;;7300628;19;142528;-74
2023/08/07 10:43:45;;;;;;;21.00;5.00;;;;;;;;;;7299674;19;140421;-73
2023/08/07 10:46:14;;;;;;;21.13;4.72;;;;;;;;;;7299839;19;140600;-76
2023/08/07 10:48:43;;;;;;;17.02;4.97;;;;;;;;;;7300796;19;142087;-76
2023/08/07 10:51:14;;;;;;;21.77;4.53;;;;;;;;;;7298854;19;142443;-76
2023/08/07 10:53:44;;;;;;;20.10;4.85;;;;;;;;;;7300868;19;141016;-75
2023/08/07 10:56:31;;;;;;;22.13;4.57;;;;;;;;;;7299265;19;140877;-74
2023/08/07 10:59:07;;;;;;;13.90;3.70;;;;;;;;;;7299377;19;140980;-75
2023/08/07 11:01:34;;;;;;;18.05;3.95;;;;;;;;;;7300388;19;142496;-76
2023/08/07 11:04:09;;;;;;;20.70;4.57;;;;;;;;;;7300870;19;140508;-75
2023/08/07 11:06:37;;;;;;;20.65;4.50;;;;;;;;;;7299423;19;140586;-75
2023/08/07 11:09:05;;;;;;;17.27;4.03;;;;;;;;;;7300207;19;141604;-75
2023/08/07 11:11:39;;;;;;;18.02;3.95;;;;;;;;;;7299462;19;142805;-74
2023/08/07 11:14:17;;;;;;;18.63;4.32;;;;;;;;;;7302636;19;140701;-74
2023/08/07 11:16:45;;;;;;;19.08;4.57;;;;;;;;;;7300263;19;140589;-74
2023/08/07 11:19:13;;;;;;;19.88;4.82;;;;;;;;;;7299391;19;141199;-75
2023/08/07 11:21:42;;;;;;;15.40;3.83;;;;;;;;;;7299776;19;142500;-74
2023/08/07 11:24:12;;;;;;;15.18;4.00;;;;;;;;;;7298306;19;140544;-74
2023/08/07 11:26:39;;;;;;;13.00;3.80;;;;;;;;;;7299334;19;140687;-74
2023/08/07 11:29:07;;;;;;;13.63;3.33;;;;;;;;;;7301335;19;140937;-74
2023/08/07 11:31:34;;;;;;;12.95;3.28;;;;;;;;;;7299400;19;140823;-74
2023/08/07 11:34:02;;;;;;;18.10;4.15;;;;;;;;;;7299444;19;140483;-75
2023/08/07 11:36:29;;;;;;;12.90;3.92;;;;;;;;;;7299380;19;140713;-76
2023/08/07 11:38:56;;;;;;;14.32;3.63;;;;;;;;;;7299200;19;140489;-75
2023/08/07 11:41:24;;;;;;;12.35;3.30;;;;;;;;;;7297795;19;142676;-76
2023/08/07 11:43:51;;;;;;;13.18;3.47;;;;;;;;;;7299573;19;140635;-76
2023/08/07 11:46:18;;;;;;;13.57;3.15;;;;;;;;;;7298366;19;140811;-76
2023/08/07 11:48:45;;;;;;;15.35;4.00;;;;;;;;;;7301799;19;140569;-76
2023/08/07 11:51:12;;;;;;;13.00;3.08;;;;;;;;;;7298472;19;141898;-76
2023/08/07 11:53:40;;;;;;;13.07;3.22;;;;;;;;;;7299547;19;140569;-76
2023/08/07 11:56:14;;;;;;;10.93;2.92;;;;;;;;;;7302983;19;140657;-74
2023/08/07 11:58:42;;;;;;;19.30;3.80;;;;;;;;;;7304187;19;141142;-74
2023/08/07 12:01:10;;;;;;;12.73;3.20;;;;;;;;;;7305233;19;141834;-74
2023/08/07 12:03:39;;;;;;;13.32;3.22;;;;;;;;;;7305677;19;140600;-77
2023/08/07 12:06:07;;;;;;;11.70;3.25;;;;;;;;;;7306409;19;140676;-75
2023/08/07 12:08:34;;;;;;;13.48;3.20;;;;;;;;;;7304892;19;141030;-75
2023/08/07 12:11:03;;;;;;;9.63;3.00;;;;;;;;;;7305287;19;141379;-76
2023/08/07 12:13:31;;;;;;;13.52;3.35;;;;;;;;;;7306070;19;140693;-76
2023/08/07 12:15:58;;;;;;;14.85;4.03;;;;;;;;;;7305852;19;140460;-74
2023/08/07 12:18:26;;;;;;;9.65;2.75;;;;;;;;;;7305074;19;141040;-75
2023/08/07 12:21:00;;;;;;;11.25;3.13;;;;;;;;;;7304009;19;142458;-75
2023/08/07 12:23:28;;;;;;;11.40;3.25;;;;;;;;;;7304701;19;141375;-75
2023/08/07 12:25:55;;;;;;;8.40;2.75;;;;;;;;;;7304106;19;140498;-74
2023/08/07 12:28:22;;;;;;;13.52;3.17;;;;;;;;;;7304811;19;141203;-74
2023/08/07 12:30:50;;;;;;;11.75;2.72;;;;;;;;;;7303818;19;142864;-75
2023/08/07 12:33:17;;;;;;;11.25;3.22;;;;;;;;;;7305019;19;140663;-74
2023/08/07 12:35:44;;;;;;;9.93;2.78;;;;;;;;;;7304957;19;140806;-75
2023/08/07 12:38:14;;;;;;;11.07;2.78;;;;;;;;;;7304389;19;140903;-75
2023/08/07 12:40:41;;;;;;;11.83;3.40;;;;;;;;;;7304923;19;141155;-75
2023/08/07 12:43:10;;;;;;;9.25;2.97;;;;;;;;;;7304493;19;140708;-75
2023/08/07 12:45:40;;;;;;;8.55;2.42;;;;;;;;;;7303590;19;141045;-75
2023/08/07 12:48:10;;;;;;;9.85;2.72;;;;;;;;;;7304188;19;140880;-75
2023/08/07 12:50:38;;;;;;;10.00;2.60;;;;;;;;;;7303521;19;141887;-75
2023/08/07 12:53:06;;;;;;;9.13;2.67;;;;;;;;;;7304329;19;140419;-75
2023/08/07 12:55:33;;;;;;;12.73;3.03;;;;;;;;;;7304208;19;140583;-74
2023/08/07 12:58:01;;;;;;;9.30;2.92;;;;;;;;;;7303143;19;141208;-75
2023/08/07 13:00:28;;;;;;;9.82;3.03;;;;;;;;;;7303135;19;142407;-74
2023/08/07 13:02:56;;;;;;;9.32;2.75;;;;;;;;;;7304212;19;140670;-75
2023/08/07 13:05:24;;;;;;;8.15;2.30;;;;;;;;;;7302144;19;140552;-75
2023/08/07 13:07:53;;;;;;;11.18;2.60;;;;;;;;;;7301783;19;141123;-74
2023/08/07 13:10:22;;;;;;;19.40;3.23;;;;;;;;;;7303668;19;141991;-74
2023/08/07 13:12:50;;;;;;;7.28;2.38;;;;;;;;;;7303015;19;140792;-74
2023/08/07 13:15:17;;;;;;;10.68;2.92;;;;;;;;;;7302996;19;140357;-73
2023/08/07 13:17:45;;;;;;;10.98;2.63;;;;;;;;;;7303268;19;140476;-74
2023/08/07 13:20:13;;;;;;;6.03;2.03;;;;;;;;;;7303040;19;142271;-74
2023/08/07 13:22:43;;;;;;;10.10;2.55;;;;;;;;;;7301748;19;140545;-75
2023/08/07 13:25:10;;;;;;;8.27;2.30;;;;;;;;;;7303195;19;140547;-76
2023/08/07 13:27:38;;;;;;;6.32;2.10;;;;;;;;;;7300944;19;141149;-74
2023/08/07 13:30:06;;;;;;;8.30;2.33;;;;;;;;;;7300793;19;142231;-74
2023/08/07 13:32:33;;;;;;;8.10;2.25;;;;;;;;;;7302909;19;140363;-74
2023/08/07 13:35:00;;;;;;;9.77;2.55;;;;;;;;;;7302654;19;140581;-74
2023/08/07 13:37:27;;;;;;;8.10;2.28;;;;;;;;;;7302380;19;140563;-74
2023/08/07 13:39:55;;;;;;;8.45;2.47;;;;;;;;;;7300949;19;140798;-75
2023/08/07 13:42:28;;;;;;;5.65;1.75;;;;;;;;;;7303148;19;140734;-74
2023/08/07 13:44:55;;;;;;;5.85;1.55;;;;;;;;;;7302980;19;140636;-76
2023/08/07 13:47:25;;;;;;;8.13;2.20;;;;;;;;;;7301724;19;140726;-75
2023/08/07 13:49:53;;;;;;;11.32;2.88;;;;;;;;;;7302251;19;142243;-74
2023/08/07 13:52:21;;;;;;;7.57;2.15;;;;;;;;;;7302657;19;140613;-74
2023/08/07 13:54:48;;;;;;;7.78;2.05;;;;;;;;;;7302476;19;140520;-75
2023/08/07 13:57:15;;;;;;;9.50;2.67;;;;;;;;;;7301692;19;141271;-74
2023/08/07 13:59:42;;;;;;;5.45;1.67;;;;;;;;;;7301744;19;142517;-74
2023/08/07 14:02:09;;;;;;;8.93;2.20;;;;;;;;;;7301588;19;140905;-74
2023/08/07 14:04:37;;;;;;;6.22;1.65;;;;;;;;;;7301835;19;140927;-74
2023/08/07 14:07:04;;;;;;;9.40;2.28;;;;;;;;;;7302159;19;140720;-74
2023/08/07 14:09:31;;;;;;;5.88;2.22;;;;;;;;;;7300909;19;142044;-75
2023/08/07 14:11:59;;;;;;;8.73;2.50;;;;;;;;;;7301572;19;140546;-74
2023/08/07 14:14:43;;;;;;;6.35;2.00;;;;;;;;;;7300077;19;140649;-76